sensor_id;sensor_type;location;lat;lon;timestamp;temperature;humidity
63325;SHT31;49451;52.390;13.028;2023-01-30T04:02:38;2.93;85.58
63325;SHT31;49451;52.390;13.028;2023-01-30T04:05:04;2.96;85.33
63325;SHT31;49451;52.390;13.028;2023-01-30T04:07:30;3.00;85.03
63325;SHT31;49451;52.390;13.028;2023-01-30T04:09:55;3.06;84.99
63325;SHT31;49451;52.390;13.028;2023-01-30T04:12:20;3.06;84.91
63325;SHT31;49451;52.390;13.028;2023-01-30T04:14:46;2.98;85.19
63325;SHT31;49451;52.390;13.028;2023-01-30T04:17:11;3.10;84.65
63325;SHT31;49451;52.390;13.028;2023-01-30T04:19:37;3.07;84.87
63325;SHT31;49451;52.390;13.028;2023-01-30T04:22:02;3.09;84.48
63325;SHT31;49451;52.390;13.028;2023-01-30T04:24:28;3.09;84.63
63325;SHT31;49451;52.390;13.028;2023-01-30T04:26:53;3.13;84.55
63325;SHT31;49451;52.390;13.028;2023-01-30T04:29:18;3.12;85.05
63325;SHT31;49451;52.390;13.028;2023-01-30T04:31:44;3.16;84.93
63325;SHT31;49451;52.390;13.028;2023-01-30T04:34:09;3.19;84.82
63325;SHT31;49451;52.390;13.028;2023-01-30T04:36:34;3.17;85.21
63325;SHT31;49451;52.390;13.028;2023-01-30T04:39:01;3.12;85.06
63325;SHT31;49451;52.390;13.028;2023-01-30T04:41:26;3.24;85.15
63325;SHT31;49451;52.390;13.028;2023-01-30T04:43:52;3.26;84.81
63325;SHT31;49451;52.390;13.028;2023-01-30T04:46:17;3.16;85.29
63325;SHT31;49451;52.390;13.028;2023-01-30T04:48:42;3.19;85.64
63325;SHT31;49451;52.390;13.028;2023-01-30T04:51:08;3.10;85.50
63325;SHT31;49451;52.390;13.028;2023-01-30T04:53:33;3.07;86.12
63325;SHT31;49451;52.390;13.028;2023-01-30T04:55:59;3.13;86.04
63325;SHT31;49451;52.390;13.028;2023-01-30T04:58:24;3.02;86.16
63325;SHT31;49451;52.390;13.028;2023-01-30T05:00:49;3.09;86.58
63325;SHT31;49451;52.390;13.028;2023-01-30T05:03:15;2.98;87.28
63325;SHT31;49451;52.390;13.028;2023-01-30T05:05:40;3.00;87.24
63325;SHT31;49451;52.390;13.028;2023-01-30T05:08:06;2.95;88.20
63325;SHT31;49451;52.390;13.028;2023-01-30T05:10:31;2.92;88.74
63325;SHT31;49451;52.390;13.028;2023-01-30T05:13:01;2.79;89.82
63325;SHT31;49451;52.390;13.028;2023-01-30T05:15:27;2.84;89.92
63325;SHT31;49451;52.390;13.028;2023-01-30T05:17:52;2.89;90.58
63325;SHT31;49451;52.390;13.028;2023-01-30T05:20:17;2.79;90.87
63325;SHT31;49451;52.390;13.028;2023-01-30T05:22:43;2.85;91.31
63325;SHT31;49451;52.390;13.028;2023-01-30T05:25:08;2.66;92.00
63325;SHT31;49451;52.390;13.028;2023-01-30T05:27:34;2.51;92.62
63325;SHT31;49451;52.390;13.028;2023-01-30T05:29:59;2.62;93.00
63325;SHT31;49451;52.390;13.028;2023-01-30T05:32:24;2.47;93.54
63325;SHT31;49451;52.390;13.028;2023-01-30T05:34:51;2.62;93.53
63325;SHT31;49451;52.390;13.028;2023-01-30T05:37:16;2.68;93.10
63325;SHT31;49451;52.390;13.028;2023-01-30T05:39:42;2.71;93.19
63325;SHT31;49451;52.390;13.028;2023-01-30T05:42:07;2.58;93.97
63325;SHT31;49451;52.390;13.028;2023-01-30T05:44:32;2.68;93.53
63325;SHT31;49451;52.390;13.028;2023-01-30T05:46:58;2.68;93.63
63325;SHT31;49451;52.390;13.028;2023-01-30T05:49:23;2.81;93.13
63325;SHT31;49451;52.390;13.028;2023-01-30T05:51:49;2.69;93.59
63325;SHT31;49451;52.390;13.028;2023-01-30T05:54:14;2.69;93.85
63325;SHT31;49451;52.390;13.028;2023-01-30T05:56:40;2.75;94.30
63325;SHT31;49451;52.390;13.028;2023-01-30T05:59:05;2.85;93.88
63325;SHT31;49451;52.390;13.028;2023-01-30T06:01:31;2.84;94.01
63325;SHT31;49451;52.390;13.028;2023-01-30T06:03:57;2.85;93.95
63325;SHT31;49451;52.390;13.028;2023-01-30T06:06:23;2.75;94.70
63325;SHT31;49451;52.390;13.028;2023-01-30T06:08:52;2.92;94.12
63325;SHT31;49451;52.390;13.028;2023-01-30T06:11:18;3.02;93.88
63325;SHT31;49451;52.390;13.028;2023-01-30T06:13:43;3.00;93.86
63325;SHT31;49451;52.390;13.028;2023-01-30T06:16:11;3.07;93.56
63325;SHT31;49451;52.390;13.028;2023-01-30T06:18:37;3.06;94.10
63325;SHT31;49451;52.390;13.028;2023-01-30T06:21:03;3.12;93.78
63325;SHT31;49451;52.390;13.028;2023-01-30T06:23:29;3.15;93.99
63325;SHT31;49451;52.390;13.028;2023-01-30T06:25:55;3.23;94.02
63325;SHT31;49451;52.390;13.028;2023-01-30T06:28:21;3.34;93.63
63325;SHT31;49451;52.390;13.028;2023-01-30T06:30:47;3.28;93.82
63325;SHT31;49451;52.390;13.028;2023-01-30T06:33:13;3.36;93.64
63325;SHT31;49451;52.390;13.028;2023-01-30T06:35:40;3.38;93.59
63325;SHT31;49451;52.390;13.028;2023-01-30T06:38:06;3.43;93.77
63325;SHT31;49451;52.390;13.028;2023-01-30T06:40:35;3.44;93.71
63325;SHT31;49451;52.390;13.028;2023-01-30T06:43:00;3.45;93.85
63325;SHT31;49451;52.390;13.028;2023-01-30T06:45:26;3.48;93.64
63325;SHT31;49451;52.390;13.028;2023-01-30T06:47:53;3.58;93.78
63325;SHT31;49451;52.390;13.028;2023-01-30T06:50:20;3.67;93.48
63325;SHT31;49451;52.390;13.028;2023-01-30T06:52:48;3.71;93.57
63325;SHT31;49451;52.390;13.028;2023-01-30T06:55:22;3.68;93.47
63325;SHT31;49451;52.390;13.028;2023-01-30T06:57:48;3.78;93.71
63325;SHT31;49451;52.390;13.028;2023-01-30T07:00:18;3.91;93.32
63325;SHT31;49451;52.390;13.028;2023-01-30T07:02:45;3.99;92.96
63325;SHT31;49451;52.390;13.028;2023-01-30T07:05:11;4.06;93.01
63325;SHT31;49451;52.390;13.028;2023-01-30T07:07:39;4.10;93.12
63325;SHT31;49451;52.390;13.028;2023-01-30T07:10:09;4.23;92.88
63325;SHT31;49451;52.390;13.028;2023-01-30T07:12:36;4.32;92.76
63325;SHT31;49451;52.390;13.028;2023-01-30T07:15:03;4.41;92.40
63325;SHT31;49451;52.390;13.028;2023-01-30T07:17:29;4.53;92.04
63325;SHT31;49451;52.390;13.028;2023-01-30T07:19:55;4.51;92.04
63325;SHT31;49451;52.390;13.028;2023-01-30T07:22:21;4.61;92.00
63325;SHT31;49451;52.390;13.028;2023-01-30T07:24:47;4.60;92.11
63325;SHT31;49451;52.390;13.028;2023-01-30T07:27:15;4.60;92.35
63325;SHT31;49451;52.390;13.028;2023-01-30T07:29:40;4.64;92.04
63325;SHT31;49451;52.390;13.028;2023-01-30T07:32:16;4.67;91.87
63325;SHT31;49451;52.390;13.028;2023-01-30T07:34:43;4.72;91.82
63325;SHT31;49451;52.390;13.028;2023-01-30T07:37:08;4.64;92.41
63325;SHT31;49451;52.390;13.028;2023-01-30T07:39:34;4.72;91.94
63325;SHT31;49451;52.390;13.028;2023-01-30T07:42:01;4.75;92.04
63325;SHT31;49451;52.390;13.028;2023-01-30T07:44:26;4.86;91.79
63325;SHT31;49451;52.390;13.028;2023-01-30T07:46:52;4.89;91.95
63325;SHT31;49451;52.390;13.028;2023-01-30T07:49:17;4.89;92.06
63325;SHT31;49451;52.390;13.028;2023-01-30T07:51:42;4.95;92.22
63325;SHT31;49451;52.390;13.028;2023-01-30T07:54:29;4.91;92.61
63325;SHT31;49451;52.390;13.028;2023-01-30T07:56:55;4.84;93.03
63325;SHT31;49451;52.390;13.028;2023-01-30T07:59:20;4.89;93.22
63325;SHT31;49451;52.390;13.028;2023-01-30T08:01:46;4.82;93.81
63325;SHT31;49451;52.390;13.028;2023-01-30T08:04:11;4.86;93.83
63325;SHT31;49451;52.390;13.028;2023-01-30T08:06:36;4.88;94.41
63325;SHT31;49451;52.390;13.028;2023-01-30T08:09:03;4.89;94.39
63325;SHT31;49451;52.390;13.028;2023-01-30T08:11:29;4.89;94.04
63325;SHT31;49451;52.390;13.028;2023-01-30T08:13:54;4.96;93.67
63325;SHT31;49451;52.390;13.028;2023-01-30T08:16:20;4.97;93.81
63325;SHT31;49451;52.390;13.028;2023-01-30T08:18:45;4.92;94.06
63325;SHT31;49451;52.390;13.028;2023-01-30T08:21:10;4.88;94.55
63325;SHT31;49451;52.390;13.028;2023-01-30T08:23:36;4.95;93.80
63325;SHT31;49451;52.390;13.028;2023-01-30T08:26:03;4.89;94.10
63325;SHT31;49451;52.390;13.028;2023-01-30T08:28:29;4.95;93.81
63325;SHT31;49451;52.390;13.028;2023-01-30T08:30:55;4.96;93.40
63325;SHT31;49451;52.390;13.028;2023-01-30T08:33:22;5.02;93.03
63325;SHT31;49451;52.390;13.028;2023-01-30T08:35:48;5.00;92.48
63325;SHT31;49451;52.390;13.028;2023-01-30T08:38:14;5.00;92.70
63325;SHT31;49451;52.390;13.028;2023-01-30T08:40:39;5.00;92.49
63325;SHT31;49451;52.390;13.028;2023-01-30T08:43:05;5.06;92.40
63325;SHT31;49451;52.390;13.028;2023-01-30T08:45:31;5.16;92.46
63325;SHT31;49451;52.390;13.028;2023-01-30T08:48:00;5.13;92.53
63325;SHT31;49451;52.390;13.028;2023-01-30T08:50:26;5.16;92.75
63325;SHT31;49451;52.390;13.028;2023-01-30T08:52:52;5.13;92.50
63325;SHT31;49451;52.390;13.028;2023-01-30T08:55:17;5.30;92.53
63325;SHT31;49451;52.390;13.028;2023-01-30T08:57:43;5.34;92.34
63325;SHT31;49451;52.390;13.028;2023-01-30T09:00:10;5.48;92.33
63325;SHT31;49451;52.390;13.028;2023-01-30T09:02:36;5.67;91.57
63325;SHT31;49451;52.390;13.028;2023-01-30T09:05:01;5.98;91.14
63325;SHT31;49451;52.390;13.028;2023-01-30T09:07:27;6.13;90.12
63325;SHT31;49451;52.390;13.028;2023-01-30T09:09:53;6.03;89.88
63325;SHT31;49451;52.390;13.028;2023-01-30T09:12:18;5.75;90.62
63325;SHT31;49451;52.390;13.028;2023-01-30T09:14:44;6.41;91.28
63325;SHT31;49451;52.390;13.028;2023-01-30T09:17:09;6.32;89.36
63325;SHT31;49451;52.390;13.028;2023-01-30T09:19:34;6.33;88.96
63325;SHT31;49451;52.390;13.028;2023-01-30T09:22:01;6.54;87.89
63325;SHT31;49451;52.390;13.028;2023-01-30T09:24:26;6.33;88.98
63325;SHT31;49451;52.390;13.028;2023-01-30T09:26:53;6.08;88.91
63325;SHT31;49451;52.390;13.028;2023-01-30T09:29:21;6.03;88.94
63325;SHT31;49451;52.390;13.028;2023-01-30T09:31:46;6.03;87.64
63325;SHT31;49451;52.390;13.028;2023-01-30T09:34:12;6.02;86.99
63325;SHT31;49451;52.390;13.028;2023-01-30T09:36:37;6.16;86.71
63325;SHT31;49451;52.390;13.028;2023-01-30T09:39:04;6.22;85.61
63325;SHT31;49451;52.390;13.028;2023-01-30T09:54:57;6.33;83.52
63325;SHT31;49451;52.390;13.028;2023-01-30T09:57:24;6.27;83.74
63325;SHT31;49451;52.390;13.028;2023-01-30T10:00:10;6.13;83.42
63325;SHT31;49451;52.390;13.028;2023-01-30T10:05:09;5.94;84.24
63325;SHT31;49451;52.390;13.028;2023-01-30T10:18:20;6.73;80.39
63325;SHT31;49451;52.390;13.028;2023-01-30T10:21:10;6.77;80.62
63325;SHT31;49451;52.390;13.028;2023-01-30T10:27:00;7.09;79.85
63325;SHT31;49451;52.390;13.028;2023-01-30T10:29:36;8.46;77.41
63325;SHT31;49451;52.390;13.028;2023-01-30T10:32:12;9.80;72.67
63325;SHT31;49451;52.390;13.028;2023-01-30T10:34:45;9.53;72.45
63325;SHT31;49451;52.390;13.028;2023-01-30T10:37:29;9.37;72.58
63325;SHT31;49451;52.390;13.028;2023-01-30T10:42:33;8.39;74.80
63325;SHT31;49451;52.390;13.028;2023-01-30T10:45:09;8.01;76.82
63325;SHT31;49451;52.390;13.028;2023-01-30T10:50:42;7.36;78.86
63325;SHT31;49451;52.390;13.028;2023-01-30T10:55:55;7.22;79.10
63325;SHT31;49451;52.390;13.028;2023-01-30T10:58:35;7.36;78.50
63325;SHT31;49451;52.390;13.028;2023-01-30T11:06:14;6.99;79.62
63325;SHT31;49451;52.390;13.028;2023-01-30T11:08:43;7.06;79.49
63325;SHT31;49451;52.390;13.028;2023-01-30T11:14:09;6.91;79.69
63325;SHT31;49451;52.390;13.028;2023-01-30T11:16:52;7.33;78.93
63325;SHT31;49451;52.390;13.028;2023-01-30T11:19:29;7.36;78.59
63325;SHT31;49451;52.390;13.028;2023-01-30T11:22:00;7.23;79.12
63325;SHT31;49451;52.390;13.028;2023-01-30T11:24:31;7.01;79.46
63325;SHT31;49451;52.390;13.028;2023-01-30T11:27:24;6.96;80.21
63325;SHT31;49451;52.390;13.028;2023-01-30T11:32:37;6.91;79.75
63325;SHT31;49451;52.390;13.028;2023-01-30T11:37:42;6.93;79.59
63325;SHT31;49451;52.390;13.028;2023-01-30T11:40:19;7.08;79.41
63325;SHT31;49451;52.390;13.028;2023-01-30T11:42:50;7.82;76.40
63325;SHT31;49451;52.390;13.028;2023-01-30T11:45:17;7.43;77.12
63325;SHT31;49451;52.390;13.028;2023-01-30T11:47:59;7.60;77.08
63325;SHT31;49451;52.390;13.028;2023-01-30T11:50:30;7.85;75.25
63325;SHT31;49451;52.390;13.028;2023-01-30T11:53:24;7.66;75.30
63325;SHT31;49451;52.390;13.028;2023-01-30T11:56:12;7.33;75.51
63325;SHT31;49451;52.390;13.028;2023-01-30T12:02:22;7.34;74.38
63325;SHT31;49451;52.390;13.028;2023-01-30T12:05:06;7.40;74.85
63325;SHT31;49451;52.390;13.028;2023-01-30T12:07:32;7.34;74.81
63325;SHT31;49451;52.390;13.028;2023-01-30T12:09:59;7.24;74.95
63325;SHT31;49451;52.390;13.028;2023-01-30T12:16:24;7.91;74.05
63325;SHT31;49451;52.390;13.028;2023-01-30T12:22:33;9.18;67.14
63325;SHT31;49451;52.390;13.028;2023-01-30T12:25:37;10.06;65.96
63325;SHT31;49451;52.390;13.028;2023-01-30T12:28:17;10.09;63.62
63325;SHT31;49451;52.390;13.028;2023-01-30T12:33:41;11.55;60.28
63325;SHT31;49451;52.390;13.028;2023-01-30T12:47:35;13.65;54.82
63325;SHT31;49451;52.390;13.028;2023-01-30T12:50:21;13.08;55.91
63325;SHT31;49451;52.390;13.028;2023-01-30T12:53:19;12.56;58.35
63325;SHT31;49451;52.390;13.028;2023-01-30T13:01:50;8.80;69.01
63325;SHT31;49451;52.390;13.028;2023-01-30T13:10:25;8.50;71.22
63325;SHT31;49451;52.390;13.028;2023-01-30T13:13:08;8.39;71.47
63325;SHT31;49451;52.390;13.028;2023-01-30T13:15:50;8.15;72.21
63325;SHT31;49451;52.390;13.028;2023-01-30T13:18:25;8.06;72.28
63325;SHT31;49451;52.390;13.028;2023-01-30T13:21:15;8.28;72.22
63325;SHT31;49451;52.390;13.028;2023-01-30T13:26:31;8.23;72.10
63325;SHT31;49451;52.390;13.028;2023-01-30T13:29:14;8.07;72.34
63325;SHT31;49451;52.390;13.028;2023-01-30T13:31:49;8.02;72.04
63325;SHT31;49451;52.390;13.028;2023-01-30T13:37:17;7.70;73.01
63325;SHT31;49451;52.390;13.028;2023-01-30T13:39:52;7.64;72.64
63325;SHT31;49451;52.390;13.028;2023-01-30T13:44:57;7.51;73.24
63325;SHT31;49451;52.390;13.028;2023-01-30T13:50:39;7.40;74.41
63325;SHT31;49451;52.390;13.028;2023-01-30T13:53:36;7.15;75.54
63325;SHT31;49451;52.390;13.028;2023-01-30T13:58:49;7.02;77.04
63325;SHT31;49451;52.390;13.028;2023-01-30T14:01:19;6.88;77.49
63325;SHT31;49451;52.390;13.028;2023-01-30T14:03:45;6.75;78.03
63325;SHT31;49451;52.390;13.028;2023-01-30T14:06:30;6.93;77.25
63325;SHT31;49451;52.390;13.028;2023-01-30T14:08:57;7.05;77.04
63325;SHT31;49451;52.390;13.028;2023-01-30T14:11:24;6.80;78.01
63325;SHT31;49451;52.390;13.028;2023-01-30T14:13:57;6.67;79.69
63325;SHT31;49451;52.390;13.028;2023-01-30T14:16:39;6.60;81.27
63325;SHT31;49451;52.390;13.028;2023-01-30T14:20:23;6.55;81.99
63325;SHT31;49451;52.390;13.028;2023-01-30T14:22:34;6.48;82.45
63325;SHT31;49451;52.390;13.028;2023-01-30T14:32:57;5.98;83.80
63325;SHT31;49451;52.390;13.028;2023-01-30T14:35:30;5.85;84.13
63325;SHT31;49451;52.390;13.028;2023-01-30T14:40:32;5.91;83.80
63325;SHT31;49451;52.390;13.028;2023-01-30T14:59:46;5.71;84.81
63325;SHT31;49451;52.390;13.028;2023-01-30T15:07:30;5.79;84.93
63325;SHT31;49451;52.390;13.028;2023-01-30T15:09:57;5.87;85.17
63325;SHT31;49451;52.390;13.028;2023-01-30T15:12:52;5.74;85.22
63325;SHT31;49451;52.390;13.028;2023-01-30T15:26:31;5.78;83.94
63325;SHT31;49451;52.390;13.028;2023-01-30T15:32:00;5.68;84.07
63325;SHT31;49451;52.390;13.028;2023-01-30T15:34:27;5.61;84.70
63325;SHT31;49451;52.390;13.028;2023-01-30T15:36:56;5.57;84.80
63325;SHT31;49451;52.390;13.028;2023-01-30T15:39:25;5.52;84.50
63325;SHT31;49451;52.390;13.028;2023-01-30T15:41:57;5.40;85.06
63325;SHT31;49451;52.390;13.028;2023-01-30T15:44:45;5.47;84.80
63325;SHT31;49451;52.390;13.028;2023-01-30T15:47:50;5.46;84.09
63325;SHT31;49451;52.390;13.028;2023-01-30T15:50:39;5.48;83.42
63325;SHT31;49451;52.390;13.028;2023-01-30T15:53:15;5.55;83.22
63325;SHT31;49451;52.390;13.028;2023-01-30T15:55:50;5.55;83.53
63325;SHT31;49451;52.390;13.028;2023-01-30T15:58:18;5.51;83.63
63325;SHT31;49451;52.390;13.028;2023-01-30T16:00:46;5.54;83.51
63325;SHT31;49451;52.390;13.028;2023-01-30T16:03:15;5.57;83.13
63325;SHT31;49451;52.390;13.028;2023-01-30T16:05:53;5.64;83.06
63325;SHT31;49451;52.390;13.028;2023-01-30T16:08:32;5.58;83.18
63325;SHT31;49451;52.390;13.028;2023-01-30T16:10:58;5.65;83.54
63325;SHT31;49451;52.390;13.028;2023-01-30T16:13:25;5.39;84.89
63325;SHT31;49451;52.390;13.028;2023-01-30T16:18:28;5.46;86.34
63325;SHT31;49451;52.390;13.028;2023-01-30T16:21:18;5.47;86.46
63325;SHT31;49451;52.390;13.028;2023-01-30T16:23:59;5.47;86.80
63325;SHT31;49451;52.390;13.028;2023-01-30T16:26:26;5.39;87.09
63325;SHT31;49451;52.390;13.028;2023-01-30T16:29:00;5.41;87.22
63325;SHT31;49451;52.390;13.028;2023-01-30T16:31:33;5.50;86.90
63325;SHT31;49451;52.390;13.028;2023-01-30T16:33:59;5.29;88.01
63325;SHT31;49451;52.390;13.028;2023-01-30T16:38:53;5.27;87.97
63325;SHT31;49451;52.390;13.028;2023-01-30T16:44:17;5.32;87.78
63325;SHT31;49451;52.390;13.028;2023-01-30T16:52:16;5.36;88.16
63325;SHT31;49451;52.390;13.028;2023-01-30T16:54:49;5.30;88.87
63325;SHT31;49451;52.390;13.028;2023-01-30T16:57:55;5.24;89.19
63325;SHT31;49451;52.390;13.028;2023-01-30T17:00:23;5.29;89.00
63325;SHT31;49451;52.390;13.028;2023-01-30T17:02:58;5.47;88.72
63325;SHT31;49451;52.390;13.028;2023-01-30T17:05:50;5.27;89.17
63325;SHT31;49451;52.390;13.028;2023-01-30T17:11:42;5.29;89.52
63325;SHT31;49451;52.390;13.028;2023-01-30T17:14:37;5.23;89.46
63325;SHT31;49451;52.390;13.028;2023-01-30T17:17:12;5.36;89.41
63325;SHT31;49451;52.390;13.028;2023-01-30T17:19:40;5.40;89.31
63325;SHT31;49451;52.390;13.028;2023-01-30T17:22:16;5.41;89.66
63325;SHT31;49451;52.390;13.028;2023-01-30T17:24:54;5.43;89.50
63325;SHT31;49451;52.390;13.028;2023-01-30T17:27:26;5.51;89.37
63325;SHT31;49451;52.390;13.028;2023-01-30T17:29:52;5.41;90.06
63325;SHT31;49451;52.390;13.028;2023-01-30T17:32:18;5.46;90.12
63325;SHT31;49451;52.390;13.028;2023-01-30T17:34:43;5.46;90.51
63325;SHT31;49451;52.390;13.028;2023-01-30T17:37:19;5.43;90.95
63325;SHT31;49451;52.390;13.028;2023-01-30T17:39:52;5.37;91.07
63325;SHT31;49451;52.390;13.028;2023-01-30T17:42:21;5.40;90.63
63325;SHT31;49451;52.390;13.028;2023-01-30T17:47:59;5.52;89.93
63325;SHT31;49451;52.390;13.028;2023-01-30T17:50:33;5.57;89.01
63325;SHT31;49451;52.390;13.028;2023-01-30T17:53:02;5.52;89.01
63325;SHT31;49451;52.390;13.028;2023-01-30T17:55:27;5.58;88.83
63325;SHT31;49451;52.390;13.028;2023-01-30T17:57:53;5.46;88.29
63325;SHT31;49451;52.390;13.028;2023-01-30T18:00:31;5.57;88.03
63325;SHT31;49451;52.390;13.028;2023-01-30T18:06:12;5.62;87.60
63325;SHT31;49451;52.390;13.028;2023-01-30T18:09:21;5.64;87.45
63325;SHT31;49451;52.390;13.028;2023-01-30T18:11:47;5.71;87.28
63325;SHT31;49451;52.390;13.028;2023-01-30T18:14:14;5.68;86.79
63325;SHT31;49451;52.390;13.028;2023-01-30T18:16:39;5.77;86.84
63325;SHT31;49451;52.390;13.028;2023-01-30T18:19:07;5.77;85.97
63325;SHT31;49451;52.390;13.028;2023-01-30T18:21:34;5.77;85.98
63325;SHT31;49451;52.390;13.028;2023-01-30T18:24:01;5.74;86.07
63325;SHT31;49451;52.390;13.028;2023-01-30T18:26:30;5.79;85.56
63325;SHT31;49451;52.390;13.028;2023-01-30T18:28:58;5.82;84.82
63325;SHT31;49451;52.390;13.028;2023-01-30T18:31:34;5.85;84.69
63325;SHT31;49451;52.390;13.028;2023-01-30T18:34:00;5.87;84.40
63325;SHT31;49451;52.390;13.028;2023-01-30T18:36:26;5.88;84.02
63325;SHT31;49451;52.390;13.028;2023-01-30T18:38:52;5.91;83.13
63325;SHT31;49451;52.390;13.028;2023-01-30T18:41:20;5.95;82.74
63325;SHT31;49451;52.390;13.028;2023-01-30T18:43:47;5.98;81.88
63325;SHT31;49451;52.390;13.028;2023-01-30T18:46:17;6.01;80.97
63325;SHT31;49451;52.390;13.028;2023-01-30T18:48:44;6.09;80.63
63325;SHT31;49451;52.390;13.028;2023-01-30T18:53:37;6.05;80.30
63325;SHT31;49451;52.390;13.028;2023-01-30T18:56:05;6.09;80.60
63325;SHT31;49451;52.390;13.028;2023-01-30T18:58:31;5.99;79.59
63325;SHT31;49451;52.390;13.028;2023-01-30T19:00:57;5.98;79.66
63325;SHT31;49451;52.390;13.028;2023-01-30T19:03:23;5.98;79.44
63325;SHT31;49451;52.390;13.028;2023-01-30T19:05:49;5.92;79.13
63325;SHT31;49451;52.390;13.028;2023-01-30T19:08:14;5.92;79.11
63325;SHT31;49451;52.390;13.028;2023-01-30T19:10:40;5.92;78.86
63325;SHT31;49451;52.390;13.028;2023-01-30T19:13:05;5.91;78.69
63325;SHT31;49451;52.390;13.028;2023-01-30T19:15:49;5.92;78.81
63325;SHT31;49451;52.390;13.028;2023-01-30T19:18:14;5.92;79.04
63325;SHT31;49451;52.390;13.028;2023-01-30T19:20:40;5.96;78.55
63325;SHT31;49451;52.390;13.028;2023-01-30T19:23:06;5.96;78.95
63325;SHT31;49451;52.390;13.028;2023-01-30T19:25:31;5.95;78.71
63325;SHT31;49451;52.390;13.028;2023-01-30T19:27:57;5.98;78.49
63325;SHT31;49451;52.390;13.028;2023-01-30T19:30:23;5.95;78.51
63325;SHT31;49451;52.390;13.028;2023-01-30T19:32:49;5.88;78.90
63325;SHT31;49451;52.390;13.028;2023-01-30T19:35:16;5.87;78.88
63325;SHT31;49451;52.390;13.028;2023-01-30T19:37:41;5.84;78.84
63325;SHT31;49451;52.390;13.028;2023-01-30T19:40:08;5.78;78.86
63325;SHT31;49451;52.390;13.028;2023-01-30T19:42:34;5.77;78.90
63325;SHT31;49451;52.390;13.028;2023-01-30T19:45:10;5.71;78.98
63325;SHT31;49451;52.390;13.028;2023-01-30T19:47:35;5.72;78.70
63325;SHT31;49451;52.390;13.028;2023-01-30T19:50:01;5.70;78.77
63325;SHT31;49451;52.390;13.028;2023-01-30T19:52:28;5.70;78.59
63325;SHT31;49451;52.390;13.028;2023-01-30T19:54:54;5.64;78.67
63325;SHT31;49451;52.390;13.028;2023-01-30T19:57:22;5.64;78.44
63325;SHT31;49451;52.390;13.028;2023-01-30T19:59:48;5.68;78.20
63325;SHT31;49451;52.390;13.028;2023-01-30T20:02:19;5.67;77.53
63325;SHT31;49451;52.390;13.028;2023-01-30T20:05:05;5.70;77.16
63325;SHT31;49451;52.390;13.028;2023-01-30T20:07:34;5.67;77.18
63325;SHT31;49451;52.390;13.028;2023-01-30T20:09:59;5.57;77.51
63325;SHT31;49451;52.390;13.028;2023-01-30T20:12:25;5.65;77.32
63325;SHT31;49451;52.390;13.028;2023-01-30T20:14:52;5.65;77.20
63325;SHT31;49451;52.390;13.028;2023-01-30T20:17:17;5.67;76.84
63325;SHT31;49451;52.390;13.028;2023-01-30T20:19:43;5.62;77.21
63325;SHT31;49451;52.390;13.028;2023-01-30T20:22:08;5.51;77.30
63325;SHT31;49451;52.390;13.028;2023-01-30T20:24:34;5.51;77.69
63325;SHT31;49451;52.390;13.028;2023-01-30T20:26:59;5.52;77.41
63325;SHT31;49451;52.390;13.028;2023-01-30T20:29:25;5.47;77.61
63325;SHT31;49451;52.390;13.028;2023-01-30T20:31:52;5.43;77.85
63325;SHT31;49451;52.390;13.028;2023-01-30T20:34:18;5.41;77.69
63325;SHT31;49451;52.390;13.028;2023-01-30T20:36:47;5.41;77.71
63325;SHT31;49451;52.390;13.028;2023-01-30T20:39:12;5.33;77.83
63325;SHT31;49451;52.390;13.028;2023-01-30T20:41:39;5.32;77.68
63325;SHT31;49451;52.390;13.028;2023-01-30T20:44:06;5.27;78.14
63325;SHT31;49451;52.390;13.028;2023-01-30T20:46:37;5.29;78.08
63325;SHT31;49451;52.390;13.028;2023-01-30T20:49:07;5.26;78.25
63325;SHT31;49451;52.390;13.028;2023-01-30T20:51:33;5.22;78.29
63325;SHT31;49451;52.390;13.028;2023-01-30T20:54:03;5.16;78.90
63325;SHT31;49451;52.390;13.028;2023-01-30T20:56:38;5.20;79.15
63325;SHT31;49451;52.390;13.028;2023-01-30T20:59:06;5.18;79.44
63325;SHT31;49451;52.390;13.028;2023-01-30T21:01:32;5.13;79.80
63325;SHT31;49451;52.390;13.028;2023-01-30T21:03:57;5.20;79.91
63325;SHT31;49451;52.390;13.028;2023-01-30T21:06:25;5.12;80.22
63325;SHT31;49451;52.390;13.028;2023-01-30T21:08:54;5.05;80.02
63325;SHT31;49451;52.390;13.028;2023-01-30T21:11:20;5.12;80.03
63325;SHT31;49451;52.390;13.028;2023-01-30T21:13:46;5.08;80.00
63325;SHT31;49451;52.390;13.028;2023-01-30T21:16:23;4.99;79.11
63325;SHT31;49451;52.390;13.028;2023-01-30T21:18:51;4.89;78.67
63325;SHT31;49451;52.390;13.028;2023-01-30T21:23:45;4.81;79.12
63325;SHT31;49451;52.390;13.028;2023-01-30T21:26:11;4.75;79.20
63325;SHT31;49451;52.390;13.028;2023-01-30T21:28:37;4.64;79.82
63325;SHT31;49451;52.390;13.028;2023-01-30T21:31:12;4.61;80.56
63325;SHT31;49451;52.390;13.028;2023-01-30T21:33:38;4.56;80.92
63325;SHT31;49451;52.390;13.028;2023-01-30T21:36:04;4.61;80.94
63325;SHT31;49451;52.390;13.028;2023-01-30T21:38:29;4.56;81.34
63325;SHT31;49451;52.390;13.028;2023-01-30T21:41:15;4.43;81.53
63325;SHT31;49451;52.390;13.028;2023-01-30T21:44:00;4.40;81.25
63325;SHT31;49451;52.390;13.028;2023-01-30T21:46:26;4.40;81.20
63325;SHT31;49451;52.390;13.028;2023-01-30T21:48:52;4.38;81.27
63325;SHT31;49451;52.390;13.028;2023-01-30T21:51:17;4.33;81.34
63325;SHT31;49451;52.390;13.028;2023-01-30T21:53:46;4.27;81.42
63325;SHT31;49451;52.390;13.028;2023-01-30T21:56:12;4.26;81.51
63325;SHT31;49451;52.390;13.028;2023-01-30T21:58:37;4.26;81.85
